Air Navigation Services of Czech Republic
Airport: LKLN Updated:  23.09.2017 23:08:08  UTC
 METAR LKLN 23.09. 23:00 ...
METAR LKLN 232300Z AUTO VRB01KT 9999 FEW069 BKN200 11/09 Q1021=